sensor_id;sensor_type;location;lat;lon;timestamp;temperature;humidity
2042;DHT22;1026;51.460;7.252;2024-03-06T00:02:21;7.80;99.90
2042;DHT22;1026;51.460;7.252;2024-03-06T00:04:48;7.80;99.90
2042;DHT22;1026;51.460;7.252;2024-03-06T00:07:15;7.80;99.90
2042;DHT22;1026;51.460;7.252;2024-03-06T00:09:42;7.80;99.90
2042;DHT22;1026;51.460;7.252;2024-03-06T00:12:09;7.80;99.90
2042;DHT22;1026;51.460;7.252;2024-03-06T00:14:36;7.80;99.90
2042;DHT22;1026;51.460;7.252;2024-03-06T00:17:04;7.80;99.90
2042;DHT22;1026;51.460;7.252;2024-03-06T00:19:31;7.80;99.90
2042;DHT22;1026;51.460;7.252;2024-03-06T00:21:59;7.80;99.90
2042;DHT22;1026;51.460;7.252;2024-03-06T00:24:27;7.80;99.90
2042;DHT22;1026;51.460;7.252;2024-03-06T00:26:54;7.80;99.90
2042;DHT22;1026;51.460;7.252;2024-03-06T00:29:21;7.80;99.90
2042;DHT22;1026;51.460;7.252;2024-03-06T00:31:48;7.80;99.90
2042;DHT22;1026;51.460;7.252;2024-03-06T00:34:15;7.70;99.90
2042;DHT22;1026;51.460;7.252;2024-03-06T00:36:43;7.80;99.90
2042;DHT22;1026;51.460;7.252;2024-03-06T00:39:13;7.70;99.90
2042;DHT22;1026;51.460;7.252;2024-03-06T00:41:42;7.70;99.90
2042;DHT22;1026;51.460;7.252;2024-03-06T00:44:09;7.70;99.90
2042;DHT22;1026;51.460;7.252;2024-03-06T00:46:38;7.70;99.90
2042;DHT22;1026;51.460;7.252;2024-03-06T00:49:05;7.70;99.90
2042;DHT22;1026;51.460;7.252;2024-03-06T00:51:32;7.70;99.90
2042;DHT22;1026;51.460;7.252;2024-03-06T00:54:17;7.70;99.90
2042;DHT22;1026;51.460;7.252;2024-03-06T00:56:44;7.70;99.90
2042;DHT22;1026;51.460;7.252;2024-03-06T00:59:11;7.70;99.90
2042;DHT22;1026;51.460;7.252;2024-03-06T01:01:38;7.60;99.90
2042;DHT22;1026;51.460;7.252;2024-03-06T01:04:05;7.70;99.90
2042;DHT22;1026;51.460;7.252;2024-03-06T01:06:32;7.60;99.90
2042;DHT22;1026;51.460;7.252;2024-03-06T01:09:00;7.60;99.90
2042;DHT22;1026;51.460;7.252;2024-03-06T01:11:27;7.60;99.90
2042;DHT22;1026;51.460;7.252;2024-03-06T01:13:54;7.60;99.90
2042;DHT22;1026;51.460;7.252;2024-03-06T01:16:21;7.60;99.90
2042;DHT22;1026;51.460;7.252;2024-03-06T01:18:48;7.60;99.90
2042;DHT22;1026;51.460;7.252;2024-03-06T01:21:15;7.60;99.90
2042;DHT22;1026;51.460;7.252;2024-03-06T01:23:54;7.60;99.90
2042;DHT22;1026;51.460;7.252;2024-03-06T01:26:21;7.60;99.90
2042;DHT22;1026;51.460;7.252;2024-03-06T01:28:48;7.60;99.90
2042;DHT22;1026;51.460;7.252;2024-03-06T01:31:15;7.50;99.90
2042;DHT22;1026;51.460;7.252;2024-03-06T01:33:42;7.50;99.90
2042;DHT22;1026;51.460;7.252;2024-03-06T01:36:09;7.50;99.90
2042;DHT22;1026;51.460;7.252;2024-03-06T01:38:38;7.50;99.90
2042;DHT22;1026;51.460;7.252;2024-03-06T01:41:05;7.50;99.90
2042;DHT22;1026;51.460;7.252;2024-03-06T01:43:37;7.50;99.90
2042;DHT22;1026;51.460;7.252;2024-03-06T01:46:05;7.50;99.90
2042;DHT22;1026;51.460;7.252;2024-03-06T01:48:33;7.50;99.90
2042;DHT22;1026;51.460;7.252;2024-03-06T01:51:02;7.50;99.90
2042;DHT22;1026;51.460;7.252;2024-03-06T01:53:29;7.50;99.90
2042;DHT22;1026;51.460;7.252;2024-03-06T01:55:58;7.50;99.90
2042;DHT22;1026;51.460;7.252;2024-03-06T01:58:25;7.40;99.90
2042;DHT22;1026;51.460;7.252;2024-03-06T02:00:52;7.40;99.90
2042;DHT22;1026;51.460;7.252;2024-03-06T02:03:19;7.40;99.90
2042;DHT22;1026;51.460;7.252;2024-03-06T02:05:48;7.40;99.90
2042;DHT22;1026;51.460;7.252;2024-03-06T02:08:15;7.40;99.90
2042;DHT22;1026;51.460;7.252;2024-03-06T02:10:44;7.40;99.90
2042;DHT22;1026;51.460;7.252;2024-03-06T02:13:12;7.40;99.90
2042;DHT22;1026;51.460;7.252;2024-03-06T02:15:39;7.40;99.90
2042;DHT22;1026;51.460;7.252;2024-03-06T02:18:07;7.40;99.90
2042;DHT22;1026;51.460;7.252;2024-03-06T02:20:38;7.40;99.90
2042;DHT22;1026;51.460;7.252;2024-03-06T02:23:05;7.40;99.90
2042;DHT22;1026;51.460;7.252;2024-03-06T02:25:32;7.40;99.90
2042;DHT22;1026;51.460;7.252;2024-03-06T02:27:59;7.30;99.90
2042;DHT22;1026;51.460;7.252;2024-03-06T02:30:26;7.30;99.90
2042;DHT22;1026;51.460;7.252;2024-03-06T02:32:53;7.30;99.90
2042;DHT22;1026;51.460;7.252;2024-03-06T02:35:20;7.30;99.90
2042;DHT22;1026;51.460;7.252;2024-03-06T02:37:47;7.40;99.90
2042;DHT22;1026;51.460;7.252;2024-03-06T02:40:14;7.30;99.90
2042;DHT22;1026;51.460;7.252;2024-03-06T02:42:41;7.30;99.90
2042;DHT22;1026;51.460;7.252;2024-03-06T02:45:08;7.30;99.90
2042;DHT22;1026;51.460;7.252;2024-03-06T02:47:35;7.30;99.90
2042;DHT22;1026;51.460;7.252;2024-03-06T02:50:03;7.30;99.90
2042;DHT22;1026;51.460;7.252;2024-03-06T02:52:30;7.30;99.90
2042;DHT22;1026;51.460;7.252;2024-03-06T02:54:57;7.30;99.90
2042;DHT22;1026;51.460;7.252;2024-03-06T02:57:27;7.30;99.90
2042;DHT22;1026;51.460;7.252;2024-03-06T02:59:58;7.20;99.90
2042;DHT22;1026;51.460;7.252;2024-03-06T03:02:25;7.20;99.90
2042;DHT22;1026;51.460;7.252;2024-03-06T03:04:52;7.20;99.90
2042;DHT22;1026;51.460;7.252;2024-03-06T03:07:19;7.20;99.90
2042;DHT22;1026;51.460;7.252;2024-03-06T03:09:46;7.20;99.90
2042;DHT22;1026;51.460;7.252;2024-03-06T03:12:13;7.20;99.90
2042;DHT22;1026;51.460;7.252;2024-03-06T03:14:41;7.20;99.90
2042;DHT22;1026;51.460;7.252;2024-03-06T03:17:08;7.20;99.90
2042;DHT22;1026;51.460;7.252;2024-03-06T03:19:35;7.10;99.90
2042;DHT22;1026;51.460;7.252;2024-03-06T03:22:03;7.10;99.90
2042;DHT22;1026;51.460;7.252;2024-03-06T03:24:31;7.10;99.90
2042;DHT22;1026;51.460;7.252;2024-03-06T03:26:58;7.10;99.90
2042;DHT22;1026;51.460;7.252;2024-03-06T03:29:24;7.10;99.90
2042;DHT22;1026;51.460;7.252;2024-03-06T03:31:51;7.10;99.90
2042;DHT22;1026;51.460;7.252;2024-03-06T03:34:19;7.10;99.90
2042;DHT22;1026;51.460;7.252;2024-03-06T03:36:47;7.10;99.90
2042;DHT22;1026;51.460;7.252;2024-03-06T03:39:15;7.10;99.90
2042;DHT22;1026;51.460;7.252;2024-03-06T03:41:47;7.10;99.90
2042;DHT22;1026;51.460;7.252;2024-03-06T03:44:15;7.10;99.90
2042;DHT22;1026;51.460;7.252;2024-03-06T03:46:42;7.10;99.90
2042;DHT22;1026;51.460;7.252;2024-03-06T03:49:09;7.10;99.90
2042;DHT22;1026;51.460;7.252;2024-03-06T03:51:38;7.10;99.90
2042;DHT22;1026;51.460;7.252;2024-03-06T03:54:05;7.00;99.90
2042;DHT22;1026;51.460;7.252;2024-03-06T03:56:37;7.10;99.90
2042;DHT22;1026;51.460;7.252;2024-03-06T03:59:04;7.00;99.90
2042;DHT22;1026;51.460;7.252;2024-03-06T04:01:31;7.00;99.90
2042;DHT22;1026;51.460;7.252;2024-03-06T04:03:58;7.00;99.90
2042;DHT22;1026;51.460;7.252;2024-03-06T04:06:25;7.00;99.90
2042;DHT22;1026;51.460;7.252;2024-03-06T04:08:52;7.00;99.90
2042;DHT22;1026;51.460;7.252;2024-03-06T04:11:19;7.00;99.90
2042;DHT22;1026;51.460;7.252;2024-03-06T04:13:46;7.00;99.90
2042;DHT22;1026;51.460;7.252;2024-03-06T04:16:19;7.00;99.90
2042;DHT22;1026;51.460;7.252;2024-03-06T04:18:46;7.00;99.90
2042;DHT22;1026;51.460;7.252;2024-03-06T04:21:13;7.00;99.90
2042;DHT22;1026;51.460;7.252;2024-03-06T04:23:43;7.00;99.90
2042;DHT22;1026;51.460;7.252;2024-03-06T04:26:10;7.00;99.90
2042;DHT22;1026;51.460;7.252;2024-03-06T04:28:37;7.00;99.90
2042;DHT22;1026;51.460;7.252;2024-03-06T04:31:05;7.00;99.90
2042;DHT22;1026;51.460;7.252;2024-03-06T04:33:32;7.00;99.90
2042;DHT22;1026;51.460;7.252;2024-03-06T04:36:04;7.00;99.90
2042;DHT22;1026;51.460;7.252;2024-03-06T04:38:35;7.00;99.90
2042;DHT22;1026;51.460;7.252;2024-03-06T04:41:02;7.00;99.90
2042;DHT22;1026;51.460;7.252;2024-03-06T04:43:29;6.90;99.90
2042;DHT22;1026;51.460;7.252;2024-03-06T04:45:56;7.10;99.90
2042;DHT22;1026;51.460;7.252;2024-03-06T04:48:24;6.90;99.90
2042;DHT22;1026;51.460;7.252;2024-03-06T04:50:51;6.90;99.90
2042;DHT22;1026;51.460;7.252;2024-03-06T04:53:18;6.90;99.90
2042;DHT22;1026;51.460;7.252;2024-03-06T04:55:47;6.90;99.90
2042;DHT22;1026;51.460;7.252;2024-03-06T04:58:13;7.00;99.90
2042;DHT22;1026;51.460;7.252;2024-03-06T05:00:40;7.00;99.90
2042;DHT22;1026;51.460;7.252;2024-03-06T05:03:07;6.90;99.90
2042;DHT22;1026;51.460;7.252;2024-03-06T05:05:51;6.90;99.90
2042;DHT22;1026;51.460;7.252;2024-03-06T05:08:36;6.90;99.90
2042;DHT22;1026;51.460;7.252;2024-03-06T05:11:21;6.90;99.90
2042;DHT22;1026;51.460;7.252;2024-03-06T05:14:05;6.90;99.90
2042;DHT22;1026;51.460;7.252;2024-03-06T05:16:50;6.90;99.90
2042;DHT22;1026;51.460;7.252;2024-03-06T05:19:34;6.90;99.90
2042;DHT22;1026;51.460;7.252;2024-03-06T05:22:19;6.90;99.90
2042;DHT22;1026;51.460;7.252;2024-03-06T05:25:03;6.90;99.90
2042;DHT22;1026;51.460;7.252;2024-03-06T05:27:49;6.90;99.90
2042;DHT22;1026;51.460;7.252;2024-03-06T05:30:34;6.90;99.90
2042;DHT22;1026;51.460;7.252;2024-03-06T05:33:18;6.90;99.90
2042;DHT22;1026;51.460;7.252;2024-03-06T05:36:02;6.90;99.90
2042;DHT22;1026;51.460;7.252;2024-03-06T05:38:47;6.90;99.90
2042;DHT22;1026;51.460;7.252;2024-03-06T05:41:33;6.90;99.90
2042;DHT22;1026;51.460;7.252;2024-03-06T05:44:17;6.90;99.90
2042;DHT22;1026;51.460;7.252;2024-03-06T05:47:02;6.90;99.90
2042;DHT22;1026;51.460;7.252;2024-03-06T05:49:47;6.90;99.90
2042;DHT22;1026;51.460;7.252;2024-03-06T05:52:32;6.90;99.90
2042;DHT22;1026;51.460;7.252;2024-03-06T05:55:17;6.90;99.90
2042;DHT22;1026;51.460;7.252;2024-03-06T05:58:01;7.00;99.90
2042;DHT22;1026;51.460;7.252;2024-03-06T06:00:41;6.80;99.90
2042;DHT22;1026;51.460;7.252;2024-03-06T06:03:08;6.80;99.90
2042;DHT22;1026;51.460;7.252;2024-03-06T06:05:39;6.80;99.90
2042;DHT22;1026;51.460;7.252;2024-03-06T06:08:07;6.80;99.90
2042;DHT22;1026;51.460;7.252;2024-03-06T06:10:34;6.80;99.90
2042;DHT22;1026;51.460;7.252;2024-03-06T06:13:01;6.80;99.90
2042;DHT22;1026;51.460;7.252;2024-03-06T06:15:32;6.80;99.90
2042;DHT22;1026;51.460;7.252;2024-03-06T06:17:58;6.80;99.90
2042;DHT22;1026;51.460;7.252;2024-03-06T06:20:25;6.80;99.90
2042;DHT22;1026;51.460;7.252;2024-03-06T06:22:53;6.80;99.90
2042;DHT22;1026;51.460;7.252;2024-03-06T06:25:20;6.70;99.90
2042;DHT22;1026;51.460;7.252;2024-03-06T06:27:47;6.80;99.90
2042;DHT22;1026;51.460;7.252;2024-03-06T06:30:16;6.80;99.90
2042;DHT22;1026;51.460;7.252;2024-03-06T06:32:43;7.00;99.90
2042;DHT22;1026;51.460;7.252;2024-03-06T06:35:11;6.80;99.90
2042;DHT22;1026;51.460;7.252;2024-03-06T06:37:41;6.70;99.90
2042;DHT22;1026;51.460;7.252;2024-03-06T06:40:08;6.70;99.90
2042;DHT22;1026;51.460;7.252;2024-03-06T06:42:36;6.70;99.90
2042;DHT22;1026;51.460;7.252;2024-03-06T06:45:04;6.70;99.90
2042;DHT22;1026;51.460;7.252;2024-03-06T06:47:33;6.70;99.90
2042;DHT22;1026;51.460;7.252;2024-03-06T06:50:01;6.70;99.90
2042;DHT22;1026;51.460;7.252;2024-03-06T06:52:32;6.90;99.90
2042;DHT22;1026;51.460;7.252;2024-03-06T06:55:01;6.70;99.90
2042;DHT22;1026;51.460;7.252;2024-03-06T06:57:28;6.70;99.90
2042;DHT22;1026;51.460;7.252;2024-03-06T06:59:55;6.70;99.90
2042;DHT22;1026;51.460;7.252;2024-03-06T07:02:22;6.70;99.90
2042;DHT22;1026;51.460;7.252;2024-03-06T07:04:49;6.70;99.90
2042;DHT22;1026;51.460;7.252;2024-03-06T07:07:17;6.70;99.90
2042;DHT22;1026;51.460;7.252;2024-03-06T07:09:44;6.70;99.90
2042;DHT22;1026;51.460;7.252;2024-03-06T07:12:11;6.70;99.90
2042;DHT22;1026;51.460;7.252;2024-03-06T07:14:38;6.60;99.90
2042;DHT22;1026;51.460;7.252;2024-03-06T07:17:05;6.60;99.90
2042;DHT22;1026;51.460;7.252;2024-03-06T07:19:32;6.60;99.90
2042;DHT22;1026;51.460;7.252;2024-03-06T07:22:00;6.60;99.90
2042;DHT22;1026;51.460;7.252;2024-03-06T07:24:26;6.60;99.90
2042;DHT22;1026;51.460;7.252;2024-03-06T07:26:53;6.60;99.90
2042;DHT22;1026;51.460;7.252;2024-03-06T07:29:21;6.60;99.90
2042;DHT22;1026;51.460;7.252;2024-03-06T07:31:48;6.60;99.90
2042;DHT22;1026;51.460;7.252;2024-03-06T07:34:15;6.60;99.90
2042;DHT22;1026;51.460;7.252;2024-03-06T07:36:42;6.60;99.90
2042;DHT22;1026;51.460;7.252;2024-03-06T07:39:09;6.60;99.90
2042;DHT22;1026;51.460;7.252;2024-03-06T07:41:36;6.60;99.90
2042;DHT22;1026;51.460;7.252;2024-03-06T07:44:04;6.50;99.90
2042;DHT22;1026;51.460;7.252;2024-03-06T07:46:31;6.50;99.90
2042;DHT22;1026;51.460;7.252;2024-03-06T07:48:58;6.60;99.90
2042;DHT22;1026;51.460;7.252;2024-03-06T07:51:25;6.50;99.90
2042;DHT22;1026;51.460;7.252;2024-03-06T07:53:52;6.60;99.90
2042;DHT22;1026;51.460;7.252;2024-03-06T07:56:19;6.60;99.90
2042;DHT22;1026;51.460;7.252;2024-03-06T07:58:46;6.60;99.90
2042;DHT22;1026;51.460;7.252;2024-03-06T08:01:13;6.60;99.90
2042;DHT22;1026;51.460;7.252;2024-03-06T08:03:40;6.50;99.90
2042;DHT22;1026;51.460;7.252;2024-03-06T08:06:09;6.60;99.90
2042;DHT22;1026;51.460;7.252;2024-03-06T08:08:39;6.50;99.90
2042;DHT22;1026;51.460;7.252;2024-03-06T08:11:06;6.50;99.90
2042;DHT22;1026;51.460;7.252;2024-03-06T08:13:33;6.50;99.90
2042;DHT22;1026;51.460;7.252;2024-03-06T08:16:01;6.50;99.90
2042;DHT22;1026;51.460;7.252;2024-03-06T08:18:28;6.50;99.90
2042;DHT22;1026;51.460;7.252;2024-03-06T08:20:55;6.50;99.90
2042;DHT22;1026;51.460;7.252;2024-03-06T08:23:22;6.50;99.90
2042;DHT22;1026;51.460;7.252;2024-03-06T08:25:50;6.50;99.90
2042;DHT22;1026;51.460;7.252;2024-03-06T08:28:17;6.60;99.90
2042;DHT22;1026;51.460;7.252;2024-03-06T08:30:44;6.50;99.90
2042;DHT22;1026;51.460;7.252;2024-03-06T08:33:11;6.50;99.90
2042;DHT22;1026;51.460;7.252;2024-03-06T08:35:39;6.60;99.90
2042;DHT22;1026;51.460;7.252;2024-03-06T08:38:06;6.50;99.90
2042;DHT22;1026;51.460;7.252;2024-03-06T08:40:34;6.70;99.90
2042;DHT22;1026;51.460;7.252;2024-03-06T08:43:01;6.60;99.90
2042;DHT22;1026;51.460;7.252;2024-03-06T08:45:28;6.60;99.90
2042;DHT22;1026;51.460;7.252;2024-03-06T08:47:55;6.60;99.90
2042;DHT22;1026;51.460;7.252;2024-03-06T08:50:22;6.50;99.90
2042;DHT22;1026;51.460;7.252;2024-03-06T08:52:51;6.60;99.90
2042;DHT22;1026;51.460;7.252;2024-03-06T08:55:18;6.50;99.90
2042;DHT22;1026;51.460;7.252;2024-03-06T08:57:46;6.60;99.90
2042;DHT22;1026;51.460;7.252;2024-03-06T09:00:13;6.60;99.90
2042;DHT22;1026;51.460;7.252;2024-03-06T09:02:41;6.60;99.90
2042;DHT22;1026;51.460;7.252;2024-03-06T09:05:10;6.60;99.90
2042;DHT22;1026;51.460;7.252;2024-03-06T09:07:39;6.60;99.90
2042;DHT22;1026;51.460;7.252;2024-03-06T09:10:10;6.60;99.90
2042;DHT22;1026;51.460;7.252;2024-03-06T09:12:37;6.60;99.90
2042;DHT22;1026;51.460;7.252;2024-03-06T09:15:05;6.60;99.90
2042;DHT22;1026;51.460;7.252;2024-03-06T09:17:34;6.60;99.90
2042;DHT22;1026;51.460;7.252;2024-03-06T09:20:02;6.60;99.90
2042;DHT22;1026;51.460;7.252;2024-03-06T09:22:39;6.60;99.90
2042;DHT22;1026;51.460;7.252;2024-03-06T09:25:07;6.60;99.90
2042;DHT22;1026;51.460;7.252;2024-03-06T09:27:35;6.60;99.90
2042;DHT22;1026;51.460;7.252;2024-03-06T09:30:02;6.60;99.90
2042;DHT22;1026;51.460;7.252;2024-03-06T09:32:30;6.60;99.90
2042;DHT22;1026;51.460;7.252;2024-03-06T09:34:58;6.60;99.90
2042;DHT22;1026;51.460;7.252;2024-03-06T09:37:26;6.60;99.90
2042;DHT22;1026;51.460;7.252;2024-03-06T09:39:53;6.60;99.90
2042;DHT22;1026;51.460;7.252;2024-03-06T09:42:20;6.60;99.90
2042;DHT22;1026;51.460;7.252;2024-03-06T09:44:47;6.60;99.90
2042;DHT22;1026;51.460;7.252;2024-03-06T09:47:21;6.60;99.90
2042;DHT22;1026;51.460;7.252;2024-03-06T09:49:52;6.60;99.90
2042;DHT22;1026;51.460;7.252;2024-03-06T09:52:24;6.60;99.90
2042;DHT22;1026;51.460;7.252;2024-03-06T09:54:57;6.70;99.90
2042;DHT22;1026;51.460;7.252;2024-03-06T09:57:25;6.70;99.90
2042;DHT22;1026;51.460;7.252;2024-03-06T09:59:52;6.70;99.90
2042;DHT22;1026;51.460;7.252;2024-03-06T10:02:54;6.70;99.90
2042;DHT22;1026;51.460;7.252;2024-03-06T10:05:24;6.70;99.90
2042;DHT22;1026;51.460;7.252;2024-03-06T10:07:51;6.70;99.90
2042;DHT22;1026;51.460;7.252;2024-03-06T10:10:22;6.90;99.90
2042;DHT22;1026;51.460;7.252;2024-03-06T10:12:50;6.90;99.90
2042;DHT22;1026;51.460;7.252;2024-03-06T10:15:17;6.80;99.90
2042;DHT22;1026;51.460;7.252;2024-03-06T10:17:45;6.80;99.90
2042;DHT22;1026;51.460;7.252;2024-03-06T10:20:23;6.70;99.90
2042;DHT22;1026;51.460;7.252;2024-03-06T10:22:52;6.80;99.90
2042;DHT22;1026;51.460;7.252;2024-03-06T10:25:25;6.70;99.90
2042;DHT22;1026;51.460;7.252;2024-03-06T10:28:10;6.80;99.90
2042;DHT22;1026;51.460;7.252;2024-03-06T10:30:40;6.90;99.90
2042;DHT22;1026;51.460;7.252;2024-03-06T10:33:14;6.80;99.90
2042;DHT22;1026;51.460;7.252;2024-03-06T10:35:43;6.80;99.90
2042;DHT22;1026;51.460;7.252;2024-03-06T10:38:11;6.80;99.90
2042;DHT22;1026;51.460;7.252;2024-03-06T10:40:40;6.80;99.90
2042;DHT22;1026;51.460;7.252;2024-03-06T10:43:09;6.80;99.90
2042;DHT22;1026;51.460;7.252;2024-03-06T10:48:31;6.80;99.90
2042;DHT22;1026;51.460;7.252;2024-03-06T10:50:59;6.80;99.90
2042;DHT22;1026;51.460;7.252;2024-03-06T10:53:27;6.80;99.90
2042;DHT22;1026;51.460;7.252;2024-03-06T10:55:57;6.80;99.90
2042;DHT22;1026;51.460;7.252;2024-03-06T10:58:25;6.80;99.90
2042;DHT22;1026;51.460;7.252;2024-03-06T11:00:53;6.90;99.90
2042;DHT22;1026;51.460;7.252;2024-03-06T11:03:22;6.90;99.90
2042;DHT22;1026;51.460;7.252;2024-03-06T11:05:50;6.90;99.90
2042;DHT22;1026;51.460;7.252;2024-03-06T11:08:19;6.90;99.90
2042;DHT22;1026;51.460;7.252;2024-03-06T11:10:47;6.90;99.90
2042;DHT22;1026;51.460;7.252;2024-03-06T11:13:33;6.90;99.90
2042;DHT22;1026;51.460;7.252;2024-03-06T11:16:01;7.00;99.90
2042;DHT22;1026;51.460;7.252;2024-03-06T11:18:48;7.00;99.90
2042;DHT22;1026;51.460;7.252;2024-03-06T11:21:46;7.00;99.90
2042;DHT22;1026;51.460;7.252;2024-03-06T11:24:18;7.00;99.90
2042;DHT22;1026;51.460;7.252;2024-03-06T11:26:48;7.10;99.90
2042;DHT22;1026;51.460;7.252;2024-03-06T11:29:19;7.10;99.90
2042;DHT22;1026;51.460;7.252;2024-03-06T11:32:04;7.10;99.90
2042;DHT22;1026;51.460;7.252;2024-03-06T11:34:35;7.10;99.90
2042;DHT22;1026;51.460;7.252;2024-03-06T11:37:08;7.30;99.90
2042;DHT22;1026;51.460;7.252;2024-03-06T11:39:39;7.20;99.90
2042;DHT22;1026;51.460;7.252;2024-03-06T11:42:08;7.20;99.90
2042;DHT22;1026;51.460;7.252;2024-03-06T11:44:36;7.20;99.90
2042;DHT22;1026;51.460;7.252;2024-03-06T11:47:05;7.20;99.90
2042;DHT22;1026;51.460;7.252;2024-03-06T11:49:34;7.20;99.90
2042;DHT22;1026;51.460;7.252;2024-03-06T11:52:06;7.20;99.90
2042;DHT22;1026;51.460;7.252;2024-03-06T11:54:35;7.30;99.90
2042;DHT22;1026;51.460;7.252;2024-03-06T11:57:03;7.30;99.90
2042;DHT22;1026;51.460;7.252;2024-03-06T11:59:37;7.30;99.90
2042;DHT22;1026;51.460;7.252;2024-03-06T12:02:07;7.30;99.90
2042;DHT22;1026;51.460;7.252;2024-03-06T12:04:37;7.30;99.90
2042;DHT22;1026;51.460;7.252;2024-03-06T12:07:06;7.30;99.90
2042;DHT22;1026;51.460;7.252;2024-03-06T12:09:35;7.40;99.90
2042;DHT22;1026;51.460;7.252;2024-03-06T12:12:08;7.40;99.90
2042;DHT22;1026;51.460;7.252;2024-03-06T12:14:37;7.40;99.90
2042;DHT22;1026;51.460;7.252;2024-03-06T12:17:10;7.40;99.90
2042;DHT22;1026;51.460;7.252;2024-03-06T12:19:38;7.40;99.90
2042;DHT22;1026;51.460;7.252;2024-03-06T12:22:06;7.40;99.90
2042;DHT22;1026;51.460;7.252;2024-03-06T12:24:35;7.40;99.90
2042;DHT22;1026;51.460;7.252;2024-03-06T12:27:06;7.40;99.90
2042;DHT22;1026;51.460;7.252;2024-03-06T12:29:34;7.50;99.90
2042;DHT22;1026;51.460;7.252;2024-03-06T12:32:02;7.50;99.90
2042;DHT22;1026;51.460;7.252;2024-03-06T12:34:29;7.50;99.90
2042;DHT22;1026;51.460;7.252;2024-03-06T12:37:08;7.50;99.90
2042;DHT22;1026;51.460;7.252;2024-03-06T12:39:35;7.50;99.90
2042;DHT22;1026;51.460;7.252;2024-03-06T12:42:05;7.50;99.90
2042;DHT22;1026;51.460;7.252;2024-03-06T12:44:33;7.50;99.90
2042;DHT22;1026;51.460;7.252;2024-03-06T12:47:00;7.60;99.90
2042;DHT22;1026;51.460;7.252;2024-03-06T12:49:28;7.60;99.90
2042;DHT22;1026;51.460;7.252;2024-03-06T12:51:55;7.60;99.90
2042;DHT22;1026;51.460;7.252;2024-03-06T12:54:22;7.60;99.90
2042;DHT22;1026;51.460;7.252;2024-03-06T12:56:49;7.60;99.90
2042;DHT22;1026;51.460;7.252;2024-03-06T12:59:16;7.60;99.90
2042;DHT22;1026;51.460;7.252;2024-03-06T13:01:43;7.60;99.90
2042;DHT22;1026;51.460;7.252;2024-03-06T13:04:11;7.60;99.90
2042;DHT22;1026;51.460;7.252;2024-03-06T13:06:39;7.70;99.90
2042;DHT22;1026;51.460;7.252;2024-03-06T13:09:09;7.70;99.90
2042;DHT22;1026;51.460;7.252;2024-03-06T13:11:36;7.70;99.90
2042;DHT22;1026;51.460;7.252;2024-03-06T13:14:03;7.70;99.90
2042;DHT22;1026;51.460;7.252;2024-03-06T13:16:30;7.90;99.90
2042;DHT22;1026;51.460;7.252;2024-03-06T13:18:57;7.80;99.90
2042;DHT22;1026;51.460;7.252;2024-03-06T13:21:27;7.80;99.90
2042;DHT22;1026;51.460;7.252;2024-03-06T13:23:54;7.80;99.90
2042;DHT22;1026;51.460;7.252;2024-03-06T13:26:20;7.80;99.90
2042;DHT22;1026;51.460;7.252;2024-03-06T13:28:48;7.80;99.90
2042;DHT22;1026;51.460;7.252;2024-03-06T13:31:15;7.80;99.90
2042;DHT22;1026;51.460;7.252;2024-03-06T13:33:41;7.90;99.90
2042;DHT22;1026;51.460;7.252;2024-03-06T13:36:09;7.90;99.90
2042;DHT22;1026;51.460;7.252;2024-03-06T13:38:36;8.20;99.90
2042;DHT22;1026;51.460;7.252;2024-03-06T13:41:03;8.50;99.90
2042;DHT22;1026;51.460;7.252;2024-03-06T13:43:31;8.70;99.90
2042;DHT22;1026;51.460;7.252;2024-03-06T13:45:59;8.90;99.80
2042;DHT22;1026;51.460;7.252;2024-03-06T13:48:26;8.90;99.50
2042;DHT22;1026;51.460;7.252;2024-03-06T13:50:53;8.80;99.80
2042;DHT22;1026;51.460;7.252;2024-03-06T13:53:20;9.00;99.90
2042;DHT22;1026;51.460;7.252;2024-03-06T13:55:47;9.00;99.40
2042;DHT22;1026;51.460;7.252;2024-03-06T13:58:14;9.10;99.20
2042;DHT22;1026;51.460;7.252;2024-03-06T14:00:41;9.20;99.80
2042;DHT22;1026;51.460;7.252;2024-03-06T14:03:08;9.10;99.90
2042;DHT22;1026;51.460;7.252;2024-03-06T14:05:35;9.40;99.90
2042;DHT22;1026;51.460;7.252;2024-03-06T14:08:03;9.20;98.60
2042;DHT22;1026;51.460;7.252;2024-03-06T14:10:30;9.10;98.10
2042;DHT22;1026;51.460;7.252;2024-03-06T14:13:00;9.30;98.50
2042;DHT22;1026;51.460;7.252;2024-03-06T14:15:27;8.90;99.60
2042;DHT22;1026;51.460;7.252;2024-03-06T14:17:54;8.80;99.90
2042;DHT22;1026;51.460;7.252;2024-03-06T14:20:22;8.60;99.90
2042;DHT22;1026;51.460;7.252;2024-03-06T14:22:50;8.50;99.90
2042;DHT22;1026;51.460;7.252;2024-03-06T14:25:17;8.40;99.90
2042;DHT22;1026;51.460;7.252;2024-03-06T14:27:45;8.40;99.90
2042;DHT22;1026;51.460;7.252;2024-03-06T14:30:12;8.40;99.90
2042;DHT22;1026;51.460;7.252;2024-03-06T14:32:40;8.40;99.90
2042;DHT22;1026;51.460;7.252;2024-03-06T14:35:07;8.40;99.90
2042;DHT22;1026;51.460;7.252;2024-03-06T14:37:35;8.40;99.90
2042;DHT22;1026;51.460;7.252;2024-03-06T14:40:02;8.40;99.90
2042;DHT22;1026;51.460;7.252;2024-03-06T14:42:35;8.30;99.90
2042;DHT22;1026;51.460;7.252;2024-03-06T14:45:02;8.30;99.90
2042;DHT22;1026;51.460;7.252;2024-03-06T14:47:32;8.30;99.90
2042;DHT22;1026;51.460;7.252;2024-03-06T14:50:00;8.40;99.90
2042;DHT22;1026;51.460;7.252;2024-03-06T14:52:27;8.30;99.90
2042;DHT22;1026;51.460;7.252;2024-03-06T14:54:54;8.40;99.90
2042;DHT22;1026;51.460;7.252;2024-03-06T14:57:21;8.50;99.90
2042;DHT22;1026;51.460;7.252;2024-03-06T14:59:50;8.50;99.90
2042;DHT22;1026;51.460;7.252;2024-03-06T15:02:18;8.40;99.90
2042;DHT22;1026;51.460;7.252;2024-03-06T15:04:45;8.40;99.90
2042;DHT22;1026;51.460;7.252;2024-03-06T15:07:12;8.40;99.90
2042;DHT22;1026;51.460;7.252;2024-03-06T15:09:40;8.40;99.90
2042;DHT22;1026;51.460;7.252;2024-03-06T15:12:07;8.40;99.90
2042;DHT22;1026;51.460;7.252;2024-03-06T15:14:35;8.40;99.90
2042;DHT22;1026;51.460;7.252;2024-03-06T15:17:11;8.50;99.90
2042;DHT22;1026;51.460;7.252;2024-03-06T15:19:39;8.50;99.90
2042;DHT22;1026;51.460;7.252;2024-03-06T15:22:07;8.70;99.90
2042;DHT22;1026;51.460;7.252;2024-03-06T15:24:34;8.50;99.90
2042;DHT22;1026;51.460;7.252;2024-03-06T15:27:01;8.50;99.90
2042;DHT22;1026;51.460;7.252;2024-03-06T15:29:28;8.50;99.90
2042;DHT22;1026;51.460;7.252;2024-03-06T15:31:56;8.40;99.90
2042;DHT22;1026;51.460;7.252;2024-03-06T15:34:23;8.50;99.90
2042;DHT22;1026;51.460;7.252;2024-03-06T15:36:49;8.40;99.90
2042;DHT22;1026;51.460;7.252;2024-03-06T15:39:20;8.60;99.90
2042;DHT22;1026;51.460;7.252;2024-03-06T15:41:48;8.40;99.90
2042;DHT22;1026;51.460;7.252;2024-03-06T15:44:14;8.40;99.90
2042;DHT22;1026;51.460;7.252;2024-03-06T15:46:41;8.40;99.90
2042;DHT22;1026;51.460;7.252;2024-03-06T15:49:22;8.40;99.90
2042;DHT22;1026;51.460;7.252;2024-03-06T15:51:52;8.40;99.90
2042;DHT22;1026;51.460;7.252;2024-03-06T15:54:21;8.40;99.90
2042;DHT22;1026;51.460;7.252;2024-03-06T15:56:48;8.40;99.90
2042;DHT22;1026;51.460;7.252;2024-03-06T15:59:15;8.40;99.90
2042;DHT22;1026;51.460;7.252;2024-03-06T16:01:42;8.40;99.90
2042;DHT22;1026;51.460;7.252;2024-03-06T16:04:11;8.40;99.90
2042;DHT22;1026;51.460;7.252;2024-03-06T16:06:38;8.40;99.90
2042;DHT22;1026;51.460;7.252;2024-03-06T16:09:07;8.50;99.90
2042;DHT22;1026;51.460;7.252;2024-03-06T16:11:40;8.60;99.90
2042;DHT22;1026;51.460;7.252;2024-03-06T16:14:07;8.50;99.90
2042;DHT22;1026;51.460;7.252;2024-03-06T16:16:35;8.40;99.90
2042;DHT22;1026;51.460;7.252;2024-03-06T16:19:02;8.60;99.90
2042;DHT22;1026;51.460;7.252;2024-03-06T16:21:29;8.50;99.90
2042;DHT22;1026;51.460;7.252;2024-03-06T16:23:56;8.50;99.90
2042;DHT22;1026;51.460;7.252;2024-03-06T16:26:33;8.50;99.90
2042;DHT22;1026;51.460;7.252;2024-03-06T16:29:00;8.60;99.90
2042;DHT22;1026;51.460;7.252;2024-03-06T16:31:28;8.60;99.90
2042;DHT22;1026;51.460;7.252;2024-03-06T16:33:56;8.60;99.90